createdAt,value
2018-04-14T00:00:53.552Z,10.01
2018-04-14T00:01:53.505Z,10.01
2018-04-14T00:02:53.467Z,10.02
2018-04-14T00:03:53.427Z,10.14
2018-04-14T00:04:53.413Z,10.07
2018-04-14T00:05:53.345Z,10.14
2018-04-14T00:06:53.309Z,10.09
2018-04-14T00:07:53.260Z,10.14
2018-04-14T00:09:03.274Z,10.09
2018-04-14T00:09:53.190Z,10.09
2018-04-14T00:10:53.154Z,10.12
2018-04-14T00:11:53.101Z,10.11
2018-04-14T00:12:53.074Z,10.17
2018-04-14T00:13:53.028Z,10.25
2018-04-14T00:14:53.009Z,10.12
2018-04-14T00:15:52.945Z,10.26
2018-04-14T00:16:52.916Z,10.22
2018-04-14T00:17:52.873Z,10.17
2018-04-14T00:18:52.827Z,10.26
2018-04-14T00:19:52.791Z,10.25
2018-04-14T00:20:52.781Z,10.25
2018-04-14T00:21:52.716Z,10.29
2018-04-14T00:22:52.667Z,10.23
2018-04-14T00:23:52.633Z,10.27
2018-04-14T00:24:52.588Z,10.29
2018-04-14T00:25:52.559Z,10.33
2018-04-14T00:26:52.542Z,10.29
2018-04-14T00:27:52.481Z,10.26
2018-04-14T00:28:52.442Z,10.27
2018-04-14T00:29:52.388Z,10.23
2018-04-14T00:31:02.791Z,10.29
2018-04-14T00:31:52.354Z,10.23
2018-04-14T00:32:52.267Z,10.27
2018-04-14T00:33:52.233Z,10.32
2018-04-14T00:34:52.191Z,10.20
2018-04-14T00:35:52.155Z,10.30
2018-04-14T00:36:52.116Z,10.27
2018-04-14T00:37:52.107Z,10.27
2018-04-14T00:38:52.039Z,10.23
2018-04-14T00:39:51.995Z,10.18
2018-04-14T00:40:51.961Z,10.25
2018-04-14T00:41:51.922Z,10.30
2018-04-14T00:42:51.874Z,10.26
2018-04-14T00:43:51.866Z,10.30
2018-04-14T00:44:51.791Z,10.27
2018-04-14T00:45:51.763Z,10.30
2018-04-14T00:46:51.712Z,10.27
2018-04-14T00:47:51.680Z,10.30
2018-04-14T00:48:51.653Z,10.30
2018-04-14T00:49:51.630Z,10.26
2018-04-14T00:50:51.558Z,10.30
2018-04-14T00:52:02.833Z,10.30
2018-04-14T00:52:51.476Z,10.36
2018-04-14T00:53:51.447Z,10.33
2018-04-14T00:54:51.396Z,10.36
2018-04-14T00:55:51.390Z,10.34
2018-04-14T00:56:51.314Z,10.33
2018-04-14T00:57:51.286Z,10.44
2018-04-14T00:58:51.241Z,10.38
2018-04-14T00:59:51.204Z,10.42
2018-04-14T01:00:51.171Z,10.45
2018-04-14T01:01:51.160Z,10.41
2018-04-14T01:02:51.087Z,10.45
2018-04-14T01:03:51.044Z,10.42
2018-04-14T01:04:51.005Z,10.45
2018-04-14T01:05:50.962Z,10.45
2018-04-14T01:06:50.923Z,10.42
2018-04-14T01:07:50.918Z,10.48
2018-04-14T01:08:50.853Z,10.52
2018-04-14T01:09:50.808Z,10.66
2018-04-14T01:10:50.767Z,10.68
2018-04-14T01:11:50.719Z,10.61
2018-04-14T01:12:50.693Z,10.61
2018-04-14T01:13:50.682Z,10.63
2018-04-14T01:14:50.604Z,10.64
2018-04-14T01:15:50.569Z,10.79
2018-04-14T01:16:50.532Z,10.86
2018-04-14T01:17:50.491Z,10.88
2018-04-14T01:18:50.482Z,10.88
2018-04-14T01:19:50.416Z,10.81
2018-04-14T01:20:50.376Z,10.86
2018-04-14T01:21:50.338Z,10.84
2018-04-14T01:22:50.288Z,10.92
2018-04-14T01:23:50.259Z,10.86
2018-04-14T01:24:50.237Z,10.85
2018-04-14T01:25:50.185Z,10.89
2018-04-14T01:26:50.140Z,11.02
2018-04-14T01:27:50.117Z,11.02
2018-04-14T01:28:50.057Z,11.14
2018-04-14T01:29:50.014Z,11.11
2018-04-14T01:30:50.013Z,11.11
2018-04-14T01:31:49.938Z,11.32
2018-04-14T01:32:49.902Z,11.36
2018-04-14T01:34:00.367Z,11.33
2018-04-14T01:34:49.821Z,11.35
2018-04-14T01:35:49.780Z,11.46
2018-04-14T01:36:49.768Z,11.43
2018-04-14T01:37:49.707Z,11.49
2018-04-14T01:38:49.669Z,11.49
2018-04-14T01:39:49.619Z,11.43
2018-04-14T01:40:49.590Z,11.49
2018-04-14T01:41:49.546Z,11.55
2018-04-14T01:42:49.532Z,11.47
2018-04-14T01:43:49.466Z,11.52
2018-04-14T01:44:49.424Z,11.57
2018-04-14T01:45:49.393Z,11.44
2018-04-14T01:46:49.344Z,11.40
2018-04-14T01:47:49.339Z,11.42
2018-04-14T01:48:49.270Z,11.42
2018-04-14T01:49:49.224Z,11.44
2018-04-14T01:50:49.199Z,11.39
2018-04-14T01:51:49.156Z,11.43
2018-04-14T01:52:49.108Z,11.43
2018-04-14T01:53:49.108Z,11.40
2018-04-14T01:54:59.411Z,11.33
2018-04-14T01:55:49.000Z,11.36
2018-04-14T01:56:48.957Z,11.39
2018-04-14T01:57:48.917Z,11.28
2018-04-14T01:58:48.888Z,11.37
2018-04-14T01:59:48.859Z,11.39
2018-04-14T02:00:48.796Z,11.43
2018-04-14T02:01:48.762Z,11.42
2018-04-14T02:02:48.716Z,11.39
2018-04-14T02:03:48.684Z,11.43
2018-04-14T02:04:48.675Z,11.55
2018-04-14T02:05:48.601Z,11.49
2018-04-14T02:06:48.561Z,11.47
2018-04-14T02:07:48.517Z,11.51
2018-04-14T02:08:48.480Z,11.43
2018-04-14T02:09:48.469Z,11.44
2018-04-14T02:10:48.406Z,11.46
2018-04-14T02:11:48.371Z,11.36
2018-04-14T02:12:48.323Z,11.43
2018-04-14T02:13:48.299Z,11.39
2018-04-14T02:14:48.253Z,11.36
2018-04-14T02:15:48.245Z,11.33
2018-04-14T02:16:48.161Z,11.37
2018-04-14T02:17:48.137Z,11.39
2018-04-14T02:18:48.090Z,11.39
2018-04-14T02:19:48.046Z,11.42
2018-04-14T02:20:48.019Z,11.39
2018-04-14T02:21:48.011Z,11.35
2018-04-14T02:22:47.934Z,11.39
2018-04-14T02:23:47.899Z,11.37
2018-04-14T02:24:47.855Z,11.36
2018-04-14T02:25:47.818Z,11.22
2018-04-14T02:26:47.780Z,11.21
2018-04-14T02:27:47.765Z,11.21
2018-04-14T02:28:47.739Z,11.25
2018-04-14T02:29:47.657Z,11.19
2018-04-14T02:30:47.624Z,11.17
2018-04-14T02:31:47.582Z,11.14
2018-04-14T02:32:47.547Z,11.19
2018-04-14T02:33:47.535Z,11.18
2018-04-14T02:34:47.467Z,11.10
2018-04-14T02:35:47.435Z,11.10
2018-04-14T02:36:58.460Z,11.11
2018-04-14T02:37:57.488Z,11.11
2018-04-14T02:38:47.317Z,11.15
2018-04-14T02:39:47.292Z,11.15
2018-04-14T02:40:47.235Z,11.17
2018-04-14T02:41:47.197Z,11.14
2018-04-14T02:42:47.152Z,11.15
2018-04-14T02:43:47.108Z,11.14
2018-04-14T02:44:47.096Z,11.11
2018-04-14T02:45:47.062Z,11.17
2018-04-14T02:46:46.993Z,11.09
2018-04-14T02:47:46.946Z,11.06
2018-04-14T02:48:46.928Z,11.04
2018-04-14T02:49:46.883Z,10.97
2018-04-14T02:50:46.837Z,10.97
2018-04-14T02:51:46.827Z,10.96
2018-04-14T02:52:46.758Z,10.96
2018-04-14T02:53:46.726Z,10.99
2018-04-14T02:54:46.679Z,10.92
2018-04-14T02:55:46.647Z,10.85
2018-04-14T02:56:46.604Z,10.89
2018-04-14T02:57:46.591Z,10.85
2018-04-14T02:58:57.022Z,10.82
2018-04-14T02:59:46.489Z,10.79
2018-04-14T03:00:46.446Z,10.84
2018-04-14T03:01:46.407Z,10.79
2018-04-14T03:02:46.367Z,10.85
2018-04-14T03:03:46.359Z,10.84
2018-04-14T03:04:46.290Z,10.81
2018-04-14T03:05:46.239Z,10.76
2018-04-14T03:06:46.206Z,10.66
2018-04-14T03:07:46.166Z,10.74
2018-04-14T03:08:46.163Z,10.61
2018-04-14T03:09:46.094Z,10.61
2018-04-14T03:10:46.050Z,10.60
2018-04-14T03:11:46.010Z,10.63
2018-04-14T03:12:45.970Z,10.60
2018-04-14T03:13:45.935Z,10.60
2018-04-14T03:14:45.922Z,10.45
2018-04-14T03:15:45.851Z,10.47
2018-04-14T03:16:45.816Z,10.47
2018-04-14T03:17:45.770Z,10.40
2018-04-14T03:18:45.735Z,10.33
2018-04-14T03:19:55.570Z,10.38
2018-04-14T03:20:45.652Z,10.33
2018-04-14T03:21:45.616Z,10.23
2018-04-14T03:22:45.577Z,10.17
2018-04-14T03:23:45.534Z,10.25
2018-04-14T03:24:45.504Z,10.22
2018-04-14T03:25:45.475Z,10.23
2018-04-14T03:26:45.421Z,10.17
2018-04-14T03:27:45.378Z,10.15
2018-04-14T03:28:45.341Z,10.20
2018-04-14T03:29:45.295Z,10.09
2018-04-14T03:30:45.282Z,10.09
2018-04-14T03:31:45.225Z,9.99
2018-04-14T03:32:45.180Z,9.99
2018-04-14T03:33:45.139Z,10.01
2018-04-14T03:34:45.104Z,9.93
2018-04-14T03:35:45.057Z,10.05
2018-04-14T03:36:45.051Z,9.89
2018-04-14T03:37:44.977Z,9.84
2018-04-14T03:38:44.938Z,9.81
2018-04-14T03:39:44.895Z,9.79
2018-04-14T03:40:52.446Z,9.81
2018-04-14T03:41:55.135Z,9.84
2018-04-14T03:42:44.784Z,9.78
2018-04-14T03:43:44.738Z,9.69
2018-04-14T03:44:44.715Z,9.71
2018-04-14T03:45:44.654Z,9.69
2018-04-14T03:46:44.654Z,9.68
2018-04-14T03:47:44.578Z,9.60
2018-04-14T03:48:44.543Z,9.66
2018-04-14T03:49:44.499Z,9.68
2018-04-14T03:50:44.468Z,9.71
2018-04-14T03:51:44.421Z,9.76
2018-04-14T03:52:44.424Z,9.72
2018-04-14T03:53:44.337Z,9.65
2018-04-14T03:54:44.293Z,9.76
2018-04-14T03:55:44.263Z,9.76
2018-04-14T03:56:44.211Z,9.71
2018-04-14T03:57:44.185Z,9.74
2018-04-14T03:58:44.172Z,9.74
2018-04-14T03:59:44.098Z,9.79
2018-04-14T04:00:44.056Z,9.79
2018-04-14T04:01:44.019Z,9.81
2018-04-14T04:02:43.974Z,9.76
2018-04-14T04:03:43.973Z,9.76
2018-04-14T04:04:43.901Z,9.78
2018-04-14T04:05:43.863Z,9.81
2018-04-14T04:06:43.822Z,9.81
2018-04-14T04:07:43.779Z,9.90
2018-04-14T04:08:43.776Z,9.87
2018-04-14T04:09:43.699Z,9.93
2018-04-14T04:10:43.660Z,9.97
2018-04-14T04:11:43.613Z,9.84
2018-04-14T04:12:43.583Z,9.90
2018-04-14T04:13:43.545Z,9.93
2018-04-14T04:14:43.534Z,9.96
2018-04-14T04:15:43.509Z,9.90
2018-04-14T04:16:43.422Z,9.96
2018-04-14T04:17:43.375Z,10.01
2018-04-14T04:18:43.351Z,9.93
2018-04-14T04:19:43.295Z,10.02
2018-04-14T04:20:43.295Z,9.93
2018-04-14T04:21:43.217Z,9.96
2018-04-14T04:22:43.187Z,9.99
2018-04-14T04:23:43.140Z,9.99
2018-04-14T04:24:43.101Z,10.09
2018-04-14T04:25:43.064Z,10.08
2018-04-14T04:26:43.053Z,10.11
2018-04-14T04:27:42.989Z,10.01
2018-04-14T04:28:42.943Z,10.11
2018-04-14T04:29:42.909Z,10.11
2018-04-14T04:30:42.897Z,10.08
2018-04-14T04:31:42.817Z,10.08
2018-04-14T04:32:42.790Z,10.08
2018-04-14T04:33:42.744Z,10.09
2018-04-14T04:34:42.706Z,10.17
2018-04-14T04:35:42.698Z,10.14
2018-04-14T04:36:42.626Z,10.18
2018-04-14T04:37:42.583Z,10.20
2018-04-14T04:38:42.551Z,10.25
2018-04-14T04:39:42.510Z,10.18
2018-04-14T04:40:42.500Z,10.25
2018-04-14T04:41:42.433Z,10.25
2018-04-14T04:42:42.393Z,10.23
2018-04-14T04:43:42.352Z,10.22
2018-04-14T04:44:42.306Z,10.15
2018-04-14T04:45:42.272Z,10.23
2018-04-14T04:46:42.261Z,10.30
2018-04-14T04:47:42.186Z,10.20
2018-04-14T04:48:42.195Z,10.29
2018-04-14T04:49:42.106Z,10.30
2018-04-14T04:50:42.077Z,10.32
2018-04-14T04:51:42.030Z,10.40
2018-04-14T04:52:42.023Z,10.34
2018-04-14T04:53:41.952Z,10.41
2018-04-14T04:54:41.918Z,10.40
2018-04-14T04:55:41.873Z,10.41
2018-04-14T04:56:41.842Z,10.36
2018-04-14T04:57:41.821Z,10.38
2018-04-14T04:58:41.748Z,10.38
2018-04-14T04:59:41.715Z,10.36
2018-04-14T05:00:41.673Z,10.42
2018-04-14T05:01:41.635Z,10.40
2018-04-14T05:02:41.603Z,10.47
2018-04-14T05:03:41.580Z,10.44
2018-04-14T05:04:41.519Z,10.44
2018-04-14T05:05:41.480Z,10.47
2018-04-14T05:06:41.444Z,10.41
2018-04-14T05:07:41.405Z,10.47
2018-04-14T05:08:41.362Z,10.51
2018-04-14T05:09:41.361Z,10.56
2018-04-14T05:10:41.283Z,10.61
2018-04-14T05:11:41.238Z,10.63
2018-04-14T05:12:41.210Z,10.59
2018-04-14T05:13:41.159Z,10.59
2018-04-14T05:14:41.121Z,10.55
2018-04-14T05:15:41.105Z,10.53
2018-04-14T05:16:41.054Z,10.52
2018-04-14T05:17:41.009Z,10.67
2018-04-14T05:18:40.960Z,10.61
2018-04-14T05:19:40.923Z,10.66
2018-04-14T05:20:40.919Z,10.55
2018-04-14T05:21:40.847Z,10.52
2018-04-14T05:22:40.807Z,10.56
2018-04-14T05:23:40.764Z,10.64
2018-04-14T05:24:40.730Z,10.66
2018-04-14T05:25:40.719Z,10.68
2018-04-14T05:26:40.663Z,10.61
2018-04-14T05:27:40.604Z,10.76
2018-04-14T05:28:40.568Z,10.81
2018-04-14T05:29:40.533Z,10.78
2018-04-14T05:30:40.489Z,10.85
2018-04-14T05:31:40.491Z,10.96
2018-04-14T05:32:40.416Z,11.04
2018-04-14T05:33:40.375Z,11.14
2018-04-14T05:34:40.331Z,11.17
2018-04-14T05:35:40.289Z,11.22
2018-04-14T05:36:40.255Z,11.22
2018-04-14T05:37:40.248Z,11.52
2018-04-14T05:38:40.172Z,11.86
2018-04-14T05:39:40.146Z,12.07
2018-04-14T05:40:40.101Z,12.31
2018-04-14T05:41:40.073Z,12.45
2018-04-14T05:42:40.066Z,12.21
2018-04-14T05:43:39.983Z,12.13
2018-04-14T05:44:39.936Z,12.02
2018-04-14T05:45:39.901Z,11.99
2018-04-14T05:46:39.862Z,11.95
2018-04-14T05:47:39.835Z,11.99
2018-04-14T05:48:39.812Z,11.94
2018-04-14T05:49:39.755Z,11.76
2018-04-14T05:50:39.709Z,11.72
2018-04-14T05:51:39.675Z,11.67
2018-04-14T05:52:39.657Z,11.61
2018-04-14T05:53:39.583Z,11.58
2018-04-14T05:54:39.550Z,11.57
2018-04-14T05:55:39.511Z,11.57
2018-04-14T05:56:39.473Z,11.60
2018-04-14T05:57:39.434Z,11.61
2018-04-14T05:58:39.425Z,11.57
2018-04-14T05:59:39.359Z,11.65
2018-04-14T06:00:39.318Z,11.64
2018-04-14T06:01:39.282Z,11.73
2018-04-14T06:02:39.238Z,11.76
2018-04-14T06:03:39.204Z,11.73
2018-04-14T06:04:39.189Z,11.86
2018-04-14T06:05:39.122Z,12.07
2018-04-14T06:06:39.084Z,12.21
2018-04-14T06:07:39.044Z,12.42
2018-04-14T06:08:39.011Z,12.46
2018-04-14T06:09:38.979Z,12.41
2018-04-14T06:10:38.958Z,12.31
2018-04-14T06:11:38.887Z,12.27
2018-04-14T06:12:38.846Z,12.27
2018-04-14T06:13:38.814Z,12.13
2018-04-14T06:14:38.776Z,12.10
2018-04-14T06:15:38.739Z,12.27
2018-04-14T06:16:38.727Z,12.42
2018-04-14T06:17:38.653Z,12.56
2018-04-14T06:18:38.632Z,12.62
2018-04-14T06:19:38.649Z,12.86
2018-04-14T06:20:38.541Z,12.86
2018-04-14T06:21:38.507Z,12.75
2018-04-14T06:22:38.489Z,12.79
2018-04-14T06:23:38.438Z,12.72
2018-04-14T06:24:38.384Z,12.64
2018-04-14T06:25:38.355Z,12.85
2018-04-14T06:26:38.318Z,12.90
2018-04-14T06:27:38.272Z,13.11
2018-04-14T06:28:38.262Z,13.75
2018-04-14T06:29:38.200Z,14.33
2018-04-14T06:30:38.170Z,14.68
2018-04-14T06:31:38.125Z,15.23
2018-04-14T06:32:38.099Z,15.62
2018-04-14T06:33:38.049Z,15.75
2018-04-14T06:34:38.032Z,15.87
2018-04-14T06:35:37.966Z,15.92
2018-04-14T06:36:37.928Z,16.01
2018-04-14T06:37:37.893Z,16.07
2018-04-14T06:38:37.858Z,15.74
2018-04-14T06:39:37.821Z,15.80
2018-04-14T06:40:37.817Z,15.64
2018-04-14T06:41:37.758Z,15.29
2018-04-14T06:42:37.708Z,15.14
2018-04-14T06:43:37.673Z,15.47
2018-04-14T06:44:37.631Z,15.59
2018-04-14T06:45:37.602Z,15.41
2018-04-14T06:46:37.588Z,15.20
2018-04-14T06:47:37.519Z,15.11
2018-04-14T06:48:37.496Z,14.94
2018-04-14T06:49:37.450Z,14.98
2018-04-14T06:50:37.413Z,15.03
2018-04-14T06:51:37.379Z,15.43
2018-04-14T06:52:37.374Z,15.80
2018-04-14T06:53:37.315Z,16.08
2018-04-14T06:54:37.271Z,15.74
2018-04-14T06:55:37.237Z,15.56
2018-04-14T06:56:37.192Z,15.35
2018-04-14T06:57:37.158Z,15.35
2018-04-14T06:58:37.157Z,15.11
2018-04-14T06:59:37.088Z,15.14
2018-04-14T07:00:37.049Z,15.10
2018-04-14T07:01:37.018Z,15.10
2018-04-14T07:02:36.982Z,15.11
2018-04-14T07:03:36.938Z,15.19
2018-04-14T07:04:36.980Z,15.20
2018-04-14T07:05:36.871Z,15.20
2018-04-14T07:06:36.830Z,14.91
2018-04-14T07:07:36.801Z,14.83
2018-04-14T07:08:36.761Z,15.06
2018-04-14T07:09:36.730Z,15.13
2018-04-14T07:10:36.715Z,15.09
2018-04-14T07:11:36.655Z,15.16
2018-04-14T07:12:36.621Z,15.31
2018-04-14T07:13:36.587Z,15.38
2018-04-14T07:14:36.543Z,15.43
2018-04-14T07:15:36.504Z,15.67
2018-04-14T07:16:36.494Z,15.90
2018-04-14T07:17:36.439Z,16.30
2018-04-14T07:18:36.393Z,16.91
2018-04-14T07:19:36.372Z,17.59
2018-04-14T07:20:36.339Z,17.97
2018-04-14T07:21:36.294Z,18.14
2018-04-14T07:22:36.293Z,18.33
2018-04-14T07:23:36.225Z,18.58
2018-04-14T07:24:36.182Z,18.62
2018-04-14T07:25:36.147Z,18.75
2018-04-14T07:26:36.115Z,18.76
2018-04-14T07:27:36.087Z,18.14
2018-04-14T07:28:36.065Z,17.82
2018-04-14T07:29:36.003Z,17.63
2018-04-14T07:30:35.978Z,17.62
2018-04-14T07:31:35.943Z,17.55
2018-04-14T07:32:35.901Z,17.63
2018-04-14T07:33:35.865Z,17.86
2018-04-14T07:34:35.861Z,18.05
2018-04-14T07:35:35.802Z,18.07
2018-04-14T07:36:35.770Z,17.78
2018-04-14T07:37:35.773Z,17.54
2018-04-14T07:38:35.708Z,17.44
2018-04-14T07:39:35.692Z,17.55
2018-04-14T07:40:35.623Z,17.56
2018-04-14T07:41:35.591Z,17.71
2018-04-14T07:42:35.567Z,17.14
2018-04-14T07:43:35.532Z,16.93
2018-04-14T07:44:35.505Z,17.06
2018-04-14T07:45:35.491Z,17.04
2018-04-14T07:46:35.430Z,17.30
2018-04-14T07:47:35.395Z,17.48
2018-04-14T07:48:35.352Z,17.14
2018-04-14T07:49:35.323Z,17.01
2018-04-14T07:50:35.286Z,17.06
2018-04-14T07:51:35.312Z,16.86
2018-04-14T07:52:35.232Z,17.18
2018-04-14T07:53:35.201Z,17.31
2018-04-14T07:54:35.162Z,17.25
2018-04-14T07:55:35.115Z,17.15
2018-04-14T07:56:35.096Z,17.26
2018-04-14T07:57:35.074Z,17.58
2018-04-14T07:58:35.022Z,18.02
2018-04-14T07:59:34.987Z,18.41
2018-04-14T08:00:34.943Z,18.82
2018-04-14T08:01:34.913Z,18.72
2018-04-14T08:02:34.927Z,18.75
2018-04-14T08:03:34.855Z,19.19
2018-04-14T08:04:34.809Z,19.63
2018-04-14T08:05:34.787Z,20.02
2018-04-14T08:06:34.749Z,20.42
2018-04-14T08:07:34.715Z,20.66
2018-04-14T08:08:34.707Z,20.80
2018-04-14T08:09:34.643Z,20.17
2018-04-14T08:10:34.619Z,19.84
2018-04-14T08:11:34.591Z,19.10
2018-04-14T08:12:34.559Z,18.36
2018-04-14T08:13:34.526Z,17.99
2018-04-14T08:14:34.519Z,17.63
2018-04-14T08:15:34.476Z,17.22
2018-04-14T08:16:34.428Z,16.73
2018-04-14T08:17:34.387Z,16.53
2018-04-14T08:18:34.369Z,16.75
2018-04-14T08:19:34.333Z,17.03
2018-04-14T08:20:34.342Z,17.44
2018-04-14T08:21:34.262Z,17.66
2018-04-14T08:22:34.239Z,17.92
2018-04-14T08:23:34.194Z,18.15
2018-04-14T08:24:34.292Z,18.36
2018-04-14T08:25:34.142Z,18.35
2018-04-14T08:26:34.131Z,18.70
2018-04-14T08:27:34.068Z,18.73
2018-04-14T08:28:34.034Z,18.73
2018-04-14T08:29:33.997Z,18.44
2018-04-14T08:30:33.969Z,18.11
2018-04-14T08:31:33.972Z,17.99
2018-04-14T08:32:33.941Z,17.92
2018-04-14T08:33:33.870Z,17.95
2018-04-14T08:34:33.838Z,17.63
2018-04-14T08:35:33.806Z,17.55
2018-04-14T08:36:33.769Z,17.14
2018-04-14T08:37:33.746Z,17.15
2018-04-14T08:38:33.739Z,16.93
2018-04-14T08:39:33.671Z,16.49
2018-04-14T08:40:33.633Z,16.24
2018-04-14T08:41:33.601Z,16.04
2018-04-14T08:42:33.568Z,16.23
2018-04-14T08:43:33.542Z,16.53
2018-04-14T08:44:33.539Z,16.86
2018-04-14T08:45:33.488Z,16.88
2018-04-14T08:46:33.438Z,17.06
2018-04-14T08:47:33.406Z,17.06
2018-04-14T08:48:33.468Z,17.49
2018-04-14T08:49:33.335Z,17.84
2018-04-14T08:50:33.326Z,18.20
2018-04-14T08:51:33.293Z,17.96
2018-04-14T08:52:33.231Z,17.95
2018-04-14T08:53:33.247Z,17.68
2018-04-14T08:54:33.178Z,17.92
2018-04-14T08:55:33.132Z,18.39
2018-04-14T08:56:33.149Z,18.81
2018-04-14T08:57:33.066Z,18.87
2018-04-14T08:58:33.028Z,18.69
2018-04-14T08:59:32.994Z,18.57
2018-04-14T09:00:32.984Z,18.44
2018-04-14T09:01:32.925Z,18.60
2018-04-14T09:02:32.938Z,18.44
2018-04-14T09:03:32.867Z,18.42
2018-04-14T09:04:32.832Z,18.30
2018-04-14T09:05:32.799Z,18.51
2018-04-14T09:06:32.769Z,18.65
2018-04-14T09:07:32.779Z,18.76
2018-04-14T09:08:32.703Z,18.54
2018-04-14T09:09:32.674Z,18.82
2018-04-14T09:10:32.688Z,18.99
2018-04-14T09:11:32.598Z,18.87
2018-04-14T09:12:32.628Z,18.95
2018-04-14T09:13:32.567Z,19.06
2018-04-14T09:14:32.502Z,19.00
2018-04-14T09:15:32.468Z,18.58
2018-04-14T09:16:32.453Z,18.58
2018-04-14T09:17:32.430Z,18.66
2018-04-14T09:18:32.376Z,18.42
2018-04-14T09:19:32.367Z,18.47
2018-04-14T09:20:32.307Z,19.00
2018-04-14T09:21:32.274Z,19.29
2018-04-14T09:22:32.242Z,19.80
2018-04-14T09:23:32.223Z,20.01
2018-04-14T09:24:32.211Z,20.58
2018-04-14T09:25:32.181Z,20.94
2018-04-14T09:26:32.139Z,20.98
2018-04-14T09:27:32.080Z,20.66
2018-04-14T09:28:32.058Z,20.87
2018-04-14T09:29:32.043Z,21.53
2018-04-14T09:30:31.990Z,22.22
2018-04-14T09:31:32.008Z,22.82
2018-04-14T09:32:31.937Z,21.94
2018-04-14T09:33:31.904Z,21.71
2018-04-14T09:34:31.876Z,22.24
2018-04-14T09:35:31.844Z,22.15
2018-04-14T09:36:31.847Z,21.84
2018-04-14T09:37:31.819Z,21.47
2018-04-14T09:38:31.748Z,21.31
2018-04-14T09:39:31.726Z,21.94
2018-04-14T09:40:31.697Z,21.98
2018-04-14T09:41:31.673Z,22.18
2018-04-14T09:42:31.677Z,20.95
2018-04-14T09:43:31.628Z,20.66
2018-04-14T09:44:31.592Z,19.77
2018-04-14T09:45:31.546Z,19.25
2018-04-14T09:46:31.524Z,19.47
2018-04-14T09:47:31.509Z,19.74
2018-04-14T09:48:31.489Z,20.14
2018-04-14T09:49:31.439Z,20.67
2018-04-14T09:50:31.405Z,21.31
2018-04-14T09:51:31.378Z,21.50
2018-04-14T09:52:31.347Z,21.86
2018-04-14T09:53:31.312Z,21.90
2018-04-14T09:54:31.334Z,22.30
2018-04-14T09:55:31.254Z,22.49
2018-04-14T09:56:31.242Z,22.92
2018-04-14T09:57:31.194Z,23.16
2018-04-14T09:58:31.178Z,23.70
2018-04-14T09:59:31.168Z,23.94
2018-04-14T10:00:31.129Z,23.68
2018-04-14T10:01:31.087Z,22.83
2018-04-14T10:02:31.062Z,22.68
2018-04-14T10:03:31.028Z,21.86
2018-04-14T10:04:31.036Z,22.14
2018-04-14T10:05:31.017Z,22.25
2018-04-14T10:06:30.945Z,21.29
2018-04-14T10:07:30.916Z,21.68
2018-04-14T10:08:30.900Z,22.21
2018-04-14T10:09:30.877Z,22.76
2018-04-14T10:10:30.876Z,22.18
2018-04-14T10:11:30.841Z,21.80
2018-04-14T10:12:30.788Z,21.77
2018-04-14T10:13:30.761Z,21.49
2018-04-14T10:14:30.731Z,21.10
2018-04-14T10:15:30.708Z,20.55
2018-04-14T10:16:30.721Z,20.31
2018-04-14T10:17:30.655Z,20.20
2018-04-14T10:18:30.631Z,19.80
2018-04-14T10:19:30.590Z,19.50
2018-04-14T10:20:30.586Z,19.54
2018-04-14T10:21:30.537Z,19.73
2018-04-14T10:22:30.534Z,19.74
2018-04-14T10:23:30.485Z,19.26
2018-04-14T10:24:30.467Z,18.54
2018-04-14T10:25:30.458Z,18.42
2018-04-14T10:26:30.404Z,18.25
2018-04-14T10:27:30.364Z,18.20
2018-04-14T10:28:30.417Z,18.27
2018-04-14T10:29:30.317Z,18.35
2018-04-14T10:30:30.303Z,18.30
2018-04-14T10:31:30.246Z,18.33
2018-04-14T10:32:30.215Z,18.51
2018-04-14T10:33:30.210Z,18.70
2018-04-14T10:34:30.206Z,18.98
2018-04-14T10:35:30.122Z,19.31
2018-04-14T10:36:30.099Z,18.98
2018-04-14T10:37:30.056Z,18.98
2018-04-14T10:38:30.028Z,19.14
2018-04-14T10:39:30.031Z,19.40
2018-04-14T10:40:29.973Z,19.08
2018-04-14T10:41:29.929Z,18.62
2018-04-14T10:42:29.905Z,18.26
2018-04-14T10:43:29.876Z,18.00
2018-04-14T10:44:29.844Z,18.42
2018-04-14T10:45:29.879Z,19.00
2018-04-14T10:46:29.772Z,19.50
2018-04-14T10:47:29.752Z,19.78
2018-04-14T10:48:29.707Z,20.33
2018-04-14T10:49:29.676Z,20.70
2018-04-14T10:50:29.693Z,21.22
2018-04-14T10:51:29.612Z,21.21
2018-04-14T10:52:29.632Z,20.97
2018-04-14T10:53:29.568Z,21.13
2018-04-14T10:54:29.531Z,20.73
2018-04-14T10:55:29.566Z,20.42
2018-04-14T10:56:29.593Z,20.01
2018-04-14T10:57:29.473Z,20.10
2018-04-14T10:58:29.403Z,20.43
2018-04-14T10:59:29.403Z,20.43
2018-04-14T11:00:29.360Z,20.54
2018-04-14T11:01:29.328Z,20.18
2018-04-14T11:02:29.327Z,20.08
2018-04-14T11:03:29.257Z,19.68
2018-04-14T11:04:29.237Z,19.88
2018-04-14T11:05:29.204Z,20.35
2018-04-14T11:06:29.177Z,20.66
2018-04-14T11:07:29.179Z,20.70
2018-04-14T11:08:29.135Z,21.19
2018-04-14T11:09:29.139Z,21.29
2018-04-14T11:10:29.068Z,21.43
2018-04-14T11:11:29.039Z,21.49
2018-04-14T11:12:29.017Z,21.42
2018-04-14T11:13:29.038Z,22.05
2018-04-14T11:14:28.973Z,22.10
2018-04-14T11:15:28.925Z,22.17
2018-04-14T11:16:28.901Z,21.28
2018-04-14T11:17:28.877Z,20.70
2018-04-14T11:18:28.853Z,19.94
2018-04-14T11:19:28.869Z,19.58
2018-04-14T11:20:28.801Z,19.26
2018-04-14T11:21:28.767Z,19.63
2018-04-14T11:22:28.748Z,19.98
2018-04-14T11:23:28.716Z,20.24
2018-04-14T11:24:28.687Z,20.24
2018-04-14T11:25:28.688Z,19.91
2018-04-14T11:26:28.618Z,19.69
2018-04-14T11:27:28.598Z,19.78
2018-04-14T11:28:28.567Z,20.16
2018-04-14T11:29:28.536Z,20.26
2018-04-14T11:30:28.523Z,20.28
2018-04-14T11:31:28.551Z,20.51
2018-04-14T11:32:28.453Z,20.74
2018-04-14T11:33:28.416Z,20.74
2018-04-14T11:34:28.397Z,20.89
2018-04-14T11:35:28.369Z,20.95
2018-04-14T11:36:28.332Z,20.88
2018-04-14T11:37:28.332Z,20.97
2018-04-14T11:38:28.278Z,21.07
2018-04-14T11:39:28.257Z,21.07
2018-04-14T11:40:28.218Z,20.79
2018-04-14T11:41:28.185Z,21.10
2018-04-14T11:42:28.197Z,21.56
2018-04-14T11:43:28.180Z,21.25
2018-04-14T11:44:28.112Z,21.24
2018-04-14T11:45:28.074Z,21.19
2018-04-14T11:46:28.053Z,21.34
2018-04-14T11:47:28.019Z,21.40
2018-04-14T11:48:28.021Z,21.04
2018-04-14T11:49:27.974Z,20.84
2018-04-14T11:50:27.933Z,20.54
2018-04-14T11:51:27.916Z,20.91
2018-04-14T11:52:27.885Z,20.99
2018-04-14T11:53:27.860Z,20.92
2018-04-14T11:54:27.864Z,21.01
2018-04-14T11:55:27.818Z,20.77
2018-04-14T11:56:27.781Z,20.39
2018-04-14T11:57:27.753Z,20.42
2018-04-14T11:58:27.722Z,20.66
2018-04-14T11:59:27.736Z,20.88
2018-04-14T12:00:27.650Z,20.92
2018-04-14T12:01:27.624Z,21.10
2018-04-14T12:02:27.605Z,20.61
2018-04-14T12:03:27.575Z,20.73
2018-04-14T12:04:27.565Z,20.85
2018-04-14T12:05:27.586Z,20.72
2018-04-14T12:06:27.503Z,20.51
2018-04-14T12:07:27.465Z,20.14
2018-04-14T12:08:27.436Z,19.80
2018-04-14T12:09:27.406Z,19.71
2018-04-14T12:10:27.391Z,19.61
2018-04-14T12:11:27.386Z,19.66
2018-04-14T12:12:27.319Z,19.54
2018-04-14T12:13:27.301Z,19.46
2018-04-14T12:14:27.269Z,19.59
2018-04-14T12:15:27.242Z,19.80
2018-04-14T12:16:27.216Z,20.03
2018-04-14T12:17:27.219Z,20.33
2018-04-14T12:18:27.166Z,20.74
2018-04-14T12:19:27.120Z,20.89
2018-04-14T12:20:27.098Z,21.01
2018-04-14T12:21:27.115Z,20.73
2018-04-14T12:22:27.046Z,20.55
2018-04-14T12:23:27.027Z,20.80
2018-04-14T12:24:26.980Z,20.82
2018-04-14T12:25:26.956Z,20.94
2018-04-14T12:26:26.911Z,20.88
2018-04-14T12:27:26.886Z,21.24
2018-04-14T12:28:26.867Z,21.03
2018-04-14T12:29:26.859Z,20.88
2018-04-14T12:30:26.810Z,21.12
2018-04-14T12:31:26.778Z,21.14
2018-04-14T12:32:26.747Z,20.94
2018-04-14T12:33:26.715Z,20.72
2018-04-14T12:34:26.687Z,20.66
2018-04-14T12:35:26.689Z,20.77
2018-04-14T12:36:26.630Z,20.74
2018-04-14T12:37:26.609Z,20.67
2018-04-14T12:38:26.582Z,20.66
2018-04-14T12:39:26.556Z,20.59
2018-04-14T12:40:26.515Z,20.66
2018-04-14T12:41:26.522Z,20.72
2018-04-14T12:42:26.465Z,20.77
2018-04-14T12:43:26.436Z,20.74
2018-04-14T12:44:26.409Z,20.72
2018-04-14T12:45:26.388Z,20.57
2018-04-14T12:46:26.345Z,20.67
2018-04-14T12:47:26.359Z,20.85
2018-04-14T12:48:26.293Z,20.91
2018-04-14T12:49:26.270Z,20.73
2018-04-14T12:50:26.243Z,20.97
2018-04-14T12:51:26.219Z,21.06
2018-04-14T12:52:26.192Z,21.13
2018-04-14T12:53:26.194Z,20.95
2018-04-14T12:54:26.137Z,20.87